Terminal Aerodrome Forecast
Issued by NWS Newport/Morehead City, NC

Home | Current Version | Previous Version | Graphics & Text | Print | Product List | Glossary On
Versions: 1 2 3 4 5 6 7 8 9 10 11 12 13 14 15 16 17 18
000
FTUS42 KMHX 150929 AAA
TAFEWN
TAF AMD
KEWN 150929Z 1509/1606 33005KT P6SM OVC007
     FM151200 02010G15KT P6SM SCT007 OVC015
     FM151500 04010G15KT P6SM SCT015 OVC035
     FM152100 04010KT P6SM VCSH SCT015 OVC035=

USA.gov is the U.S. government's official web portal to all federal, state and local government web resources and services.